Lamco Airport

Jump to: basic info | weather | comments

Related pages: nearby airports | nearby navaids | notams | map

Basic information (top)

Codes: UCN GLLB
Location: lon 5.867000, lat -10.050000, elev 30 ft / 9 m msl
Status: small_airport
Scheduled airline service: no
Links: Wikipedia Mobile

Weather (top)

Current conditions for Roberts International Airport 29nm (53km) NW (rec'd 2015/04/21 02:30Z):

GLRB 210230Z 00000KT 9999 FEW013 FEW014 CB 25/24 Q1010 RMK CB-N

Airport forecast for Roberts International Airport 29nm (53km) NW (rec'd 2015/04/20 18:51Z):

TAF GLRB 201600Z 2018/2124 23007KT 9999 SCT020 
      BECMG 2020/2022 00000KT 9999 FEW015 
     FM210000 VRB03KT 9000 SCT013

Latest comments (top)

No comments yet for Lamco Airport

More... (top)

See also NOTAMs and nearby airports and navaids, or visit the Lamco Airport page at the main OurAirports website..